Terminal Aerodrome Forecast
Issued by NWS

Home | Current Version | Previous Version | Text Only | Print | Product List | Glossary On
Versions: 1 2 3 4 5 6 7 8 9 10 11 12 13 14 15 16 17 18
000
FTUS44 KLZK 010900 AAA
TAFADF
TAF AMD
KADF 010924Z 0109/0206 22009KT P6SM VCTS BKN050CB BKN250
      TEMPO 0109/0111 2SM TSRA BR BKN050CB
     FM011400 17007KT P6SM VCSH SCT050 OVC150
     FM020000 13003KT P6SM VCSH BKN050=

USA.gov is the U.S. government's official web portal to all federal, state and local government web resources and services.